createdAt,value
2019-03-03T00:01:41.965Z,41.46
2019-03-03T00:06:51.025Z,42.46
2019-03-03T00:11:59.255Z,42.81
2019-03-03T00:17:07.516Z,41.13
2019-03-03T00:22:15.703Z,42.18
2019-03-03T00:27:23.997Z,40.38
2019-03-03T00:32:32.099Z,37.01
2019-03-03T00:37:40.448Z,39.97
2019-03-03T00:42:48.606Z,40.97
2019-03-03T00:47:56.871Z,40.93
2019-03-03T00:53:05.059Z,41.72
2019-03-03T00:58:13.513Z,41.62
2019-03-03T01:03:21.702Z,37.82
2019-03-03T01:08:29.994Z,38.75
2019-03-03T01:13:38.209Z,36.21
2019-03-03T01:18:46.445Z,35.52
2019-03-03T01:23:54.569Z,40.18
2019-03-03T01:29:02.798Z,35.68
2019-03-03T01:34:11.017Z,34.36
2019-03-03T01:39:19.298Z,34.89
2019-03-03T01:44:27.422Z,33.41
2019-03-03T01:49:35.650Z,32.64
2019-03-03T01:54:43.790Z,29.74
2019-03-03T01:59:52.081Z,28.94
2019-03-03T02:05:00.325Z,28.76
2019-03-03T02:10:08.613Z,28.22
2019-03-03T02:15:17.169Z,26.17
2019-03-03T02:20:25.405Z,27.11
2019-03-03T02:25:33.778Z,24.08
2019-03-03T02:30:42.483Z,25.07
2019-03-03T02:35:50.694Z,25.74
2019-03-03T02:40:58.946Z,26.41
2019-03-03T02:46:07.523Z,25.39
2019-03-03T02:51:15.773Z,26.88
2019-03-03T02:56:23.923Z,23.72
2019-03-03T03:01:32.733Z,23.29
2019-03-03T03:06:41.070Z,21.78
2019-03-03T03:11:49.320Z,21.83
2019-03-03T03:16:58.387Z,18.44
2019-03-03T03:22:08.423Z,19.38
2019-03-03T03:27:07.696Z,20.87
2019-03-03T03:32:17.741Z,18.61
2019-03-03T03:37:17.609Z,19.92
2019-03-03T03:42:26.816Z,17.99
2019-03-03T03:47:35.281Z,17.56
2019-03-03T03:52:43.485Z,15.54
2019-03-03T03:57:51.630Z,15.93
2019-03-03T04:02:59.866Z,17.83
2019-03-03T04:08:08.116Z,16.83
2019-03-03T04:13:16.334Z,15.08
2019-03-03T04:18:24.463Z,16.23
2019-03-03T04:23:32.654Z,15.32
2019-03-03T04:28:40.946Z,17.20
2019-03-03T04:33:49.181Z,14.31
2019-03-03T04:38:57.374Z,13.39
2019-03-03T04:44:05.701Z,14.74
2019-03-03T04:49:14.057Z,16.93
2019-03-03T04:54:22.261Z,16.76
2019-03-03T04:59:30.471Z,11.15
2019-03-03T05:04:38.701Z,15.53
2019-03-03T05:09:46.801Z,14.04
2019-03-03T05:14:55.206Z,13.49
2019-03-03T05:20:03.369Z,15.81
2019-03-03T05:25:11.661Z,17.10
2019-03-03T05:30:19.913Z,17.04
2019-03-03T05:35:28.237Z,17.57
2019-03-03T05:40:36.566Z,14.92
2019-03-03T05:45:44.945Z,13.14
2019-03-03T05:50:53.354Z,17.65
2019-03-03T05:56:01.729Z,16.30
2019-03-03T06:01:09.879Z,16.72
2019-03-03T06:06:18.153Z,15.03
2019-03-03T06:11:26.410Z,16.91
2019-03-03T06:16:34.628Z,18.23
2019-03-03T06:21:42.879Z,17.31
2019-03-03T06:26:51.522Z,17.34
2019-03-03T06:31:59.693Z,19.50
2019-03-03T06:37:08.729Z,16.69
2019-03-03T06:42:17.013Z,17.83
2019-03-03T06:47:25.339Z,17.49
2019-03-03T06:52:33.642Z,15.15
2019-03-03T06:57:41.998Z,14.80
2019-03-03T07:02:50.196Z,13.93
2019-03-03T07:07:58.421Z,14.09
2019-03-03T07:13:06.664Z,14.04
2019-03-03T07:18:15.021Z,12.95
2019-03-03T07:23:23.253Z,14.26
2019-03-03T07:28:31.305Z,14.97
2019-03-03T07:33:39.384Z,13.56
2019-03-03T07:38:47.673Z,13.78
2019-03-03T07:43:55.772Z,13.65
2019-03-03T07:49:04.094Z,13.24
2019-03-03T07:54:12.367Z,14.78
2019-03-03T07:59:20.694Z,12.65
2019-03-03T08:04:28.922Z,12.77
2019-03-03T08:09:37.127Z,14.30
2019-03-03T08:14:45.201Z,11.98
2019-03-03T08:19:53.446Z,12.42
2019-03-03T08:25:01.624Z,12.02
2019-03-03T08:30:09.935Z,12.24
2019-03-03T08:35:18.288Z,12.24
2019-03-03T08:40:26.877Z,12.53
2019-03-03T08:45:35.049Z,12.58
2019-03-03T08:50:43.317Z,11.83
2019-03-03T08:55:51.529Z,11.80
2019-03-03T09:00:59.665Z,12.65
2019-03-03T09:06:07.937Z,12.10
2019-03-03T09:11:16.447Z,12.19
2019-03-03T09:16:24.576Z,11.32
2019-03-03T09:21:32.898Z,11.78
2019-03-03T09:26:41.070Z,10.94
2019-03-03T09:31:49.402Z,11.09
2019-03-03T09:36:57.789Z,10.42
2019-03-03T09:42:06.497Z,9.76
2019-03-03T09:47:14.701Z,10.07
2019-03-03T09:52:23.174Z,12.20
2019-03-03T09:57:31.426Z,9.95
2019-03-03T10:02:39.687Z,9.85
2019-03-03T10:07:48.070Z,10.26
2019-03-03T10:12:56.583Z,10.64
2019-03-03T10:18:04.945Z,10.26
2019-03-03T10:23:13.823Z,10.37
2019-03-03T10:28:22.129Z,11.46
2019-03-03T10:33:30.586Z,13.23
2019-03-03T10:38:38.868Z,13.57
2019-03-03T10:43:47.295Z,13.03
2019-03-03T10:48:55.580Z,13.13
2019-03-03T10:54:03.917Z,13.15
2019-03-03T10:59:12.246Z,12.82
2019-03-03T11:04:20.693Z,14.17
2019-03-03T11:09:28.974Z,12.63
2019-03-03T11:14:37.350Z,12.88
2019-03-03T11:19:45.719Z,13.00
2019-03-03T11:24:54.250Z,12.68
2019-03-03T11:30:02.497Z,11.34
2019-03-03T11:35:11.309Z,10.06
2019-03-03T11:40:19.678Z,10.08
2019-03-03T11:45:28.141Z,10.36
2019-03-03T11:50:36.577Z,9.80
2019-03-03T11:55:45.134Z,9.21
2019-03-03T12:00:53.448Z,9.30
2019-03-03T12:06:01.910Z,9.49
2019-03-03T12:11:10.874Z,9.69
2019-03-03T12:16:19.313Z,9.64
2019-03-03T12:21:27.559Z,9.02
2019-03-03T12:26:35.946Z,8.92
2019-03-03T12:31:44.250Z,9.06
2019-03-03T12:36:54.146Z,8.67
2019-03-03T12:42:00.298Z,7.87
2019-03-03T12:47:08.673Z,8.10
2019-03-03T12:52:16.980Z,8.40
2019-03-03T12:57:25.689Z,7.14
2019-03-03T13:02:50.326Z,7.43
2019-03-03T13:08:19.976Z,7.07
2019-03-03T13:12:54.256Z,7.24
2019-03-03T13:28:01.812Z,8.64
2019-03-03T13:33:12.150Z,8.50
2019-03-03T13:38:04.245Z,7.37
2019-03-03T13:43:03.855Z,7.10
2019-03-03T13:48:12.128Z,7.51
2019-03-03T13:53:20.406Z,6.70
2019-03-03T13:58:30.693Z,6.38
2019-03-03T14:03:36.933Z,6.23
2019-03-03T14:08:45.453Z,6.38
2019-03-03T14:13:53.665Z,7.89
2019-03-03T14:19:02.745Z,8.49
2019-03-03T14:24:13.184Z,7.73
2019-03-03T14:29:14.178Z,6.65
2019-03-03T14:34:22.454Z,9.98
2019-03-03T14:39:30.839Z,8.54
2019-03-03T14:44:39.094Z,8.49
2019-03-03T14:49:47.417Z,8.15
2019-03-03T14:54:55.770Z,7.88
2019-03-03T15:00:04.093Z,8.45
2019-03-03T15:05:13.297Z,8.53
2019-03-03T15:10:21.735Z,8.94
2019-03-03T15:15:30.321Z,7.21
2019-03-03T15:20:38.550Z,7.02
2019-03-03T15:25:47.117Z,7.30
2019-03-03T15:30:55.545Z,6.33
2019-03-03T15:36:03.744Z,5.20
2019-03-03T15:41:04.804Z,5.76
2019-03-03T15:46:13.259Z,8.35
2019-03-03T15:51:14.743Z,8.43
2019-03-03T15:56:23.414Z,8.49
2019-03-03T16:06:34.820Z,11.07
2019-03-03T16:16:52.346Z,8.76
2019-03-03T16:21:50.925Z,8.91
2019-03-03T16:26:59.211Z,8.83
2019-03-03T16:32:08.232Z,8.50
2019-03-03T16:37:16.399Z,8.40
2019-03-03T16:42:24.812Z,8.24
2019-03-03T16:47:33.107Z,7.93
2019-03-03T16:52:41.949Z,8.37
2019-03-03T16:57:50.269Z,8.40
2019-03-03T17:02:59.875Z,9.07
2019-03-03T17:08:08.806Z,10.01
2019-03-03T17:18:36.555Z,9.03
2019-03-03T17:23:25.348Z,8.92
2019-03-03T17:28:35.350Z,9.15
2019-03-03T17:33:33.871Z,9.40
2019-03-03T17:38:42.440Z,9.71
2019-03-03T17:43:51.299Z,10.11
2019-03-03T17:48:59.741Z,10.42
2019-03-03T17:54:08.541Z,9.74
2019-03-03T17:59:17.023Z,10.24
2019-03-03T18:04:25.237Z,11.50
2019-03-03T18:09:33.397Z,12.11
2019-03-03T18:14:41.979Z,12.04
2019-03-03T18:19:50.094Z,13.50
2019-03-03T18:24:58.727Z,15.10
2019-03-03T18:30:07.117Z,13.68
2019-03-03T18:35:15.680Z,14.63
2019-03-03T18:40:24.094Z,13.99
2019-03-03T18:45:32.531Z,15.17
2019-03-03T18:50:40.838Z,15.38
2019-03-03T18:55:49.356Z,16.10
2019-03-03T19:00:57.595Z,15.56
2019-03-03T19:06:06.419Z,15.13
2019-03-03T19:11:14.530Z,15.58
2019-03-03T19:16:23.203Z,16.26
2019-03-03T19:21:31.399Z,16.13
2019-03-03T19:26:39.625Z,17.66
2019-03-03T19:31:48.293Z,16.10
2019-03-03T19:36:56.722Z,18.55
2019-03-03T19:42:05.411Z,16.73
2019-03-03T19:47:14.223Z,18.56
2019-03-03T19:52:22.795Z,19.53
2019-03-03T19:57:31.195Z,23.23
2019-03-03T20:02:39.389Z,22.12
2019-03-03T20:07:48.154Z,22.40
2019-03-03T20:12:56.470Z,24.04
2019-03-03T20:18:05.755Z,25.90
2019-03-03T20:23:13.992Z,25.51
2019-03-03T20:28:23.250Z,27.15
2019-03-03T20:33:33.748Z,27.97
2019-03-03T20:38:32.231Z,27.71
2019-03-03T20:43:52.903Z,34.51
2019-03-03T20:48:46.862Z,27.96
2019-03-03T20:53:45.134Z,30.47
2019-03-03T20:58:54.080Z,32.79
2019-03-03T21:04:01.035Z,28.21
2019-03-03T21:09:09.510Z,29.02
2019-03-03T21:14:17.725Z,28.10
2019-03-03T21:19:26.316Z,25.68
2019-03-03T21:24:34.796Z,26.45
2019-03-03T21:29:43.694Z,25.51
2019-03-03T21:34:52.165Z,26.39
2019-03-03T21:40:00.696Z,24.40
2019-03-03T21:45:08.761Z,23.31
2019-03-03T21:50:17.165Z,22.52
2019-03-03T21:55:25.361Z,23.59
2019-03-03T22:00:34.057Z,21.61
2019-03-03T22:05:42.251Z,20.68
2019-03-03T22:10:50.635Z,19.32
2019-03-03T22:15:58.780Z,18.55
2019-03-03T22:21:07.170Z,20.30
2019-03-03T22:26:15.314Z,18.83
2019-03-03T22:31:23.670Z,15.34
2019-03-03T22:36:31.900Z,18.46
2019-03-03T22:41:40.281Z,15.74
2019-03-03T22:46:48.556Z,17.42
2019-03-03T22:51:56.988Z,15.67
2019-03-03T22:57:05.222Z,15.62
2019-03-03T23:02:14.936Z,17.79
2019-03-03T23:07:23.045Z,14.22
2019-03-03T23:12:31.423Z,16.37
2019-03-03T23:17:39.669Z,16.50
2019-03-03T23:22:48.021Z,13.01
2019-03-03T23:27:56.156Z,14.54
2019-03-03T23:33:04.529Z,14.36
2019-03-03T23:38:12.737Z,15.13
2019-03-03T23:43:21.216Z,12.54
2019-03-03T23:48:29.369Z,13.28
2019-03-03T23:53:37.817Z,13.72
2019-03-03T23:58:46.133Z,14.66
